Longview, Illinois
Current Conditions -  °F | °C
As of 7:53 PM on Friday 21 Nov 2014 (Local Time) from KCMI Reporting Station
Overcast Overcast  
Wind Chill: 24°   Ceiling: 4500
Heat Index: 33°   Visibility: 10mi
Dew Point: 17°   Wind: 12mph
Humidity: 52%   Direction: 140°SE
Pressure: 30.31"   Gusts: NA
Location:  39.89°N, 88.07°W
Report Text: KCMI 220153Z 14010KT 10SM OVC045 01/M08 A3031 RMK AO2 SLP274 T00061083 $
Loading
Personal Weather Stations






























Interactive Weather Map New forecast layout! Learn more

10-Day Weather Forecast

Advertisements
Track Severe Weather on mobile